Terminal Aerodrome Forecast
Issued by NWS

Home | Current Version | Previous Version | Text Only | Print | Product List | Glossary On
Versions: 1 2 3 4 5 6 7 8 9 10 11 12 13 14 15 16 17 18
594
FTAK31 PAJN 292100 AAA
TAFAPG
TAF AMD
PAPG 292100Z 2921/3018 27003KT P6SM -SHRA SCT005 OVC035
     FM300000 26004KT P6SM -SHRA OVC015
     FM300600 VRB03KT P6SM VCSH OVC025
     FM301500 VRB03KT P6SM VCSH SCT025 BKN040
      AMD NOT SKED=

USA.gov is the U.S. government's official web portal to all federal, state and local government web resources and services.